createdAt,value
2023-03-31T00:00:02.288Z,0.00
2023-03-31T00:01:02.292Z,0.00
2023-03-31T00:02:02.268Z,0.00
2023-03-31T00:03:02.393Z,0.00
2023-03-31T00:04:02.379Z,0.00
2023-03-31T00:05:02.330Z,0.00
2023-03-31T00:06:02.240Z,0.00
2023-03-31T00:07:02.214Z,0.00
2023-03-31T00:08:03.736Z,0.00
2023-03-31T00:09:02.176Z,0.00
2023-03-31T00:10:16.572Z,0.00
2023-03-31T00:11:03.165Z,0.00
2023-03-31T00:12:02.151Z,0.00
2023-03-31T00:13:02.148Z,0.00
2023-03-31T00:14:02.125Z,0.00
2023-03-31T00:15:02.122Z,0.00
2023-03-31T00:16:02.194Z,0.00
2023-03-31T00:17:02.186Z,0.00
2023-03-31T00:18:02.103Z,0.00
2023-03-31T00:19:02.181Z,0.00
2023-03-31T00:20:02.052Z,0.00
2023-03-31T00:21:02.480Z,0.00
2023-03-31T00:22:02.036Z,0.00
2023-03-31T00:23:02.017Z,0.00
2023-03-31T00:24:02.040Z,0.00
2023-03-31T00:25:02.000Z,0.00
2023-03-31T00:26:01.991Z,0.00
2023-03-31T00:27:02.020Z,0.00
2023-03-31T00:28:01.965Z,0.00
2023-03-31T00:29:02.017Z,0.00
2023-03-31T00:30:02.000Z,0.00
2023-03-31T00:31:01.925Z,0.00
2023-03-31T00:32:01.950Z,0.00
2023-03-31T00:33:02.019Z,0.00
2023-03-31T00:34:01.888Z,0.00
2023-03-31T00:35:01.881Z,0.00
2023-03-31T00:36:02.249Z,0.00
2023-03-31T00:37:01.882Z,0.00
2023-03-31T00:38:01.854Z,0.00
2023-03-31T00:39:02.825Z,0.00
2023-03-31T00:40:01.840Z,0.00
2023-03-31T00:41:01.820Z,0.00
2023-03-31T00:42:01.860Z,0.00
2023-03-31T00:43:01.780Z,0.00
2023-03-31T00:44:03.285Z,0.00
2023-03-31T00:45:01.806Z,0.00
2023-03-31T00:46:01.814Z,0.00
2023-03-31T00:47:01.765Z,0.00
2023-03-31T00:48:01.793Z,0.00
2023-03-31T00:49:01.720Z,0.00
2023-03-31T00:50:01.724Z,0.00
2023-03-31T00:51:01.703Z,0.00
2023-03-31T00:52:01.734Z,0.00
2023-03-31T00:53:01.682Z,0.00
2023-03-31T00:54:01.669Z,0.00
2023-03-31T00:55:01.658Z,0.00
2023-03-31T00:56:01.681Z,0.00
2023-03-31T00:57:02.626Z,0.00
2023-03-31T00:58:01.645Z,0.00
2023-03-31T00:59:01.618Z,0.00
2023-03-31T01:00:01.710Z,0.00
2023-03-31T01:01:01.597Z,0.00
2023-03-31T01:02:01.579Z,0.00
2023-03-31T01:03:01.600Z,0.00
2023-03-31T01:04:01.572Z,0.00
2023-03-31T01:05:01.573Z,0.00
2023-03-31T01:06:01.580Z,0.00
2023-03-31T01:07:01.519Z,0.00
2023-03-31T01:08:01.513Z,0.00
2023-03-31T01:09:01.498Z,0.00
2023-03-31T01:10:02.992Z,0.00
2023-03-31T01:11:01.471Z,0.00
2023-03-31T01:12:01.504Z,0.00
2023-03-31T01:13:01.460Z,0.00
2023-03-31T01:14:01.448Z,0.00
2023-03-31T01:15:01.444Z,0.00
2023-03-31T01:16:02.461Z,0.00
2023-03-31T01:17:01.480Z,0.00
2023-03-31T01:18:01.490Z,0.00
2023-03-31T01:19:01.385Z,0.00
2023-03-31T01:20:01.401Z,0.00
2023-03-31T01:21:01.363Z,0.00
2023-03-31T01:22:01.383Z,0.00
2023-03-31T01:23:01.386Z,0.00
2023-03-31T01:24:01.337Z,0.00
2023-03-31T01:25:01.316Z,0.00
2023-03-31T01:26:01.339Z,0.00
2023-03-31T01:27:01.337Z,0.00
2023-03-31T01:28:01.294Z,0.00
2023-03-31T01:29:01.270Z,0.00
2023-03-31T01:30:01.299Z,0.00
2023-03-31T01:31:01.286Z,0.00
2023-03-31T01:32:01.248Z,0.00
2023-03-31T01:33:01.319Z,0.00
2023-03-31T01:34:01.239Z,0.00
2023-03-31T01:35:01.558Z,0.00
2023-03-31T01:36:01.881Z,0.00
2023-03-31T01:37:01.499Z,0.00
2023-03-31T01:38:02.157Z,0.00
2023-03-31T01:39:01.213Z,0.00
2023-03-31T01:40:01.404Z,0.00
2023-03-31T01:41:01.173Z,0.00
2023-03-31T01:42:01.644Z,0.00
2023-03-31T01:43:01.127Z,0.00
2023-03-31T01:44:01.191Z,0.00
2023-03-31T01:45:01.349Z,0.00
2023-03-31T01:46:02.610Z,0.00
2023-03-31T01:47:01.479Z,0.00
2023-03-31T01:48:01.130Z,0.00
2023-03-31T01:49:01.055Z,0.00
2023-03-31T01:50:01.100Z,0.00
2023-03-31T01:51:01.026Z,0.00
2023-03-31T01:52:01.049Z,0.00
2023-03-31T01:53:01.011Z,0.00
2023-03-31T01:54:01.004Z,0.00
2023-03-31T01:55:00.988Z,0.00
2023-03-31T01:56:01.043Z,0.00
2023-03-31T01:57:00.985Z,0.00
2023-03-31T01:58:00.968Z,0.00
2023-03-31T01:59:00.941Z,0.00
2023-03-31T02:00:00.929Z,0.00
2023-03-31T02:01:00.931Z,0.00
2023-03-31T02:02:01.004Z,0.00
2023-03-31T02:03:00.973Z,0.00
2023-03-31T02:04:01.000Z,0.00
2023-03-31T02:05:00.887Z,0.00
2023-03-31T02:06:00.866Z,0.00
2023-03-31T02:07:00.863Z,0.00
2023-03-31T02:08:00.856Z,0.00
2023-03-31T02:09:00.844Z,0.00
2023-03-31T02:10:00.841Z,0.00
2023-03-31T02:11:00.807Z,0.00
2023-03-31T02:12:02.312Z,0.00
2023-03-31T02:13:00.809Z,0.00
2023-03-31T02:14:00.820Z,0.00
2023-03-31T02:15:00.775Z,0.00
2023-03-31T02:16:00.786Z,0.00
2023-03-31T02:17:00.771Z,0.00
2023-03-31T02:18:00.732Z,0.00
2023-03-31T02:19:01.693Z,0.00
2023-03-31T02:20:00.734Z,0.00
2023-03-31T02:21:00.728Z,0.00
2023-03-31T02:22:00.704Z,0.00
2023-03-31T02:23:00.660Z,0.00
2023-03-31T02:24:00.661Z,0.00
2023-03-31T02:25:00.647Z,0.00
2023-03-31T02:26:00.636Z,0.00
2023-03-31T02:27:00.657Z,0.00
2023-03-31T02:28:00.635Z,0.00
2023-03-31T02:29:00.643Z,0.00
2023-03-31T02:30:00.644Z,0.00
2023-03-31T02:31:00.575Z,0.00
2023-03-31T02:32:00.757Z,0.00
2023-03-31T02:33:00.598Z,0.00
2023-03-31T02:34:00.550Z,0.00
2023-03-31T02:35:00.580Z,0.00
2023-03-31T02:36:00.663Z,0.00
2023-03-31T02:37:00.670Z,0.00
2023-03-31T02:38:02.011Z,0.00
2023-03-31T02:39:01.472Z,0.00
2023-03-31T02:40:00.524Z,0.00
2023-03-31T02:41:00.461Z,0.00
2023-03-31T02:42:00.492Z,0.00
2023-03-31T02:43:00.451Z,0.00
2023-03-31T02:44:00.452Z,0.00
2023-03-31T02:45:00.415Z,0.00
2023-03-31T02:46:00.458Z,0.00
2023-03-31T02:47:00.483Z,0.00
2023-03-31T02:48:00.430Z,0.00
2023-03-31T02:49:00.419Z,0.00
2023-03-31T02:50:00.367Z,0.00
2023-03-31T02:51:00.352Z,0.00
2023-03-31T02:52:00.357Z,0.00
2023-03-31T02:53:00.378Z,0.00
2023-03-31T02:54:00.367Z,0.00
2023-03-31T02:55:00.315Z,0.00
2023-03-31T02:56:00.314Z,0.00
2023-03-31T02:57:00.383Z,0.00
2023-03-31T02:58:00.271Z,0.00
2023-03-31T02:59:00.255Z,0.00
2023-03-31T03:00:00.298Z,0.00
2023-03-31T03:01:00.345Z,0.00
2023-03-31T03:02:00.307Z,0.00
2023-03-31T03:03:00.304Z,0.00
2023-03-31T03:04:01.009Z,0.00
2023-03-31T03:05:00.215Z,0.00
2023-03-31T03:06:01.316Z,0.00
2023-03-31T03:07:00.171Z,0.00
2023-03-31T03:08:00.179Z,0.00
2023-03-31T03:09:01.646Z,0.00
2023-03-31T03:10:00.152Z,0.00
2023-03-31T03:11:00.158Z,0.00
2023-03-31T03:12:00.145Z,0.00
2023-03-31T03:13:00.141Z,0.00
2023-03-31T03:14:00.116Z,0.00
2023-03-31T03:15:00.128Z,0.00
2023-03-31T03:16:00.106Z,0.00
2023-03-31T03:17:00.179Z,0.00
2023-03-31T03:18:00.271Z,0.00
2023-03-31T03:19:00.055Z,0.00
2023-03-31T03:20:00.042Z,0.00
2023-03-31T03:21:00.039Z,0.00
2023-03-31T03:22:01.464Z,0.00
2023-03-31T03:22:59.984Z,0.00
2023-03-31T03:23:59.988Z,0.00
2023-03-31T03:24:59.976Z,0.00
2023-03-31T03:25:59.961Z,0.00
2023-03-31T03:26:59.968Z,0.00
2023-03-31T03:27:59.934Z,0.00
2023-03-31T03:28:59.941Z,0.00
2023-03-31T03:29:59.938Z,0.00
2023-03-31T03:30:59.945Z,0.00
2023-03-31T03:31:59.909Z,0.00
2023-03-31T03:32:59.932Z,0.00
2023-03-31T03:33:59.869Z,0.00
2023-03-31T03:34:59.872Z,0.00
2023-03-31T03:35:59.900Z,0.00
2023-03-31T03:36:59.956Z,0.00
2023-03-31T03:38:01.283Z,0.00
2023-03-31T03:38:59.983Z,0.00
2023-03-31T03:40:00.775Z,0.00
2023-03-31T03:41:00.042Z,0.00
2023-03-31T03:41:59.786Z,0.00
2023-03-31T03:42:59.753Z,0.00
2023-03-31T03:44:00.050Z,0.00
2023-03-31T03:45:01.244Z,0.00
2023-03-31T03:45:59.799Z,0.00
2023-03-31T03:47:00.033Z,0.00
2023-03-31T03:47:59.739Z,0.00
2023-03-31T03:49:00.182Z,0.00
2023-03-31T03:49:59.715Z,0.00
2023-03-31T03:50:59.768Z,0.00
2023-03-31T03:52:00.544Z,0.00
2023-03-31T03:52:59.651Z,0.00
2023-03-31T03:53:59.647Z,0.00
2023-03-31T03:54:59.621Z,0.00
2023-03-31T03:55:59.662Z,0.00
2023-03-31T03:56:59.740Z,0.00
2023-03-31T03:57:59.665Z,0.00
2023-03-31T03:58:59.588Z,0.00
2023-03-31T03:59:59.593Z,0.00
2023-03-31T04:00:59.564Z,0.00
2023-03-31T04:01:59.551Z,0.00
2023-03-31T04:02:59.598Z,0.00
2023-03-31T04:03:59.526Z,0.00
2023-03-31T04:04:59.526Z,0.00
2023-03-31T04:05:59.504Z,0.00
2023-03-31T04:06:59.483Z,0.00
2023-03-31T04:07:59.470Z,0.00
2023-03-31T04:08:59.505Z,0.00
2023-03-31T04:09:59.490Z,0.00
2023-03-31T04:11:00.418Z,0.00
2023-03-31T04:11:59.498Z,0.00
2023-03-31T04:12:59.440Z,0.00
2023-03-31T04:13:59.506Z,0.00
2023-03-31T04:14:59.491Z,0.00
2023-03-31T04:15:59.482Z,0.00
2023-03-31T04:17:00.341Z,0.00
2023-03-31T04:17:59.424Z,0.00
2023-03-31T04:18:59.368Z,0.00
2023-03-31T04:19:59.380Z,0.00
2023-03-31T04:20:59.318Z,0.00
2023-03-31T04:21:59.324Z,0.00
2023-03-31T04:22:59.514Z,0.00
2023-03-31T04:24:00.272Z,0.00
2023-03-31T04:24:59.307Z,0.00
2023-03-31T04:25:59.288Z,0.00
2023-03-31T04:26:59.268Z,0.00
2023-03-31T04:27:59.268Z,0.00
2023-03-31T04:28:59.237Z,0.00
2023-03-31T04:29:59.293Z,0.00
2023-03-31T04:30:59.219Z,0.00
2023-03-31T04:31:59.558Z,0.00
2023-03-31T04:32:59.434Z,0.00
2023-03-31T04:33:59.184Z,0.00
2023-03-31T04:34:59.281Z,0.00
2023-03-31T04:35:59.240Z,0.00
2023-03-31T04:36:59.152Z,0.00
2023-03-31T04:37:59.389Z,0.00
2023-03-31T04:38:59.186Z,0.00
2023-03-31T04:39:59.126Z,0.00
2023-03-31T04:40:59.091Z,0.00
2023-03-31T04:42:00.126Z,0.00
2023-03-31T04:42:59.107Z,0.00
2023-03-31T04:43:59.109Z,0.00
2023-03-31T04:44:59.059Z,0.00
2023-03-31T04:45:59.184Z,0.00
2023-03-31T04:46:59.082Z,0.00
2023-03-31T04:47:59.094Z,0.00
2023-03-31T04:48:59.027Z,0.00
2023-03-31T04:49:59.088Z,0.00
2023-03-31T04:50:58.995Z,0.00
2023-03-31T04:51:58.997Z,0.00
2023-03-31T04:52:58.981Z,0.00
2023-03-31T04:53:59.076Z,0.00
2023-03-31T04:54:58.991Z,0.00
2023-03-31T04:55:58.960Z,4.00
2023-03-31T04:56:58.972Z,4.00
2023-03-31T04:57:58.923Z,4.00
2023-03-31T04:58:58.908Z,8.00
2023-03-31T04:59:58.890Z,12.00
2023-03-31T05:00:58.997Z,12.00
2023-03-31T05:01:58.866Z,12.00
2023-03-31T05:02:58.916Z,16.00
2023-03-31T05:03:58.867Z,20.00
2023-03-31T05:04:58.867Z,24.00
2023-03-31T05:05:58.847Z,24.00
2023-03-31T05:06:58.834Z,28.00
2023-03-31T05:07:58.821Z,32.00
2023-03-31T05:08:58.816Z,40.00
2023-03-31T05:09:59.740Z,44.00
2023-03-31T05:10:58.794Z,44.00
2023-03-31T05:11:58.752Z,52.00
2023-03-31T05:13:00.286Z,56.00
2023-03-31T05:13:58.771Z,60.00
2023-03-31T05:14:58.732Z,60.00
2023-03-31T05:15:58.722Z,68.00
2023-03-31T05:16:58.795Z,72.00
2023-03-31T05:17:58.734Z,72.00
2023-03-31T05:18:58.706Z,72.00
2023-03-31T05:19:59.661Z,80.00
2023-03-31T05:20:58.667Z,92.00
2023-03-31T05:21:58.648Z,96.00
2023-03-31T05:22:58.640Z,92.00
2023-03-31T05:23:58.632Z,96.00
2023-03-31T05:24:58.685Z,96.00
2023-03-31T05:25:58.752Z,80.00
2023-03-31T05:26:58.613Z,72.00
2023-03-31T05:27:59.254Z,68.00
2023-03-31T05:28:58.592Z,68.00
2023-03-31T05:29:58.626Z,68.00
2023-03-31T05:30:58.568Z,92.00
2023-03-31T05:31:59.562Z,112.00
2023-03-31T05:32:58.574Z,120.00
2023-03-31T05:33:58.519Z,136.00
2023-03-31T05:34:59.976Z,140.00
2023-03-31T05:35:58.541Z,120.00
2023-03-31T05:36:58.512Z,96.00
2023-03-31T05:37:59.436Z,104.00
2023-03-31T05:38:59.326Z,104.00
2023-03-31T05:39:58.463Z,120.00
2023-03-31T05:40:58.679Z,120.00
2023-03-31T05:41:58.446Z,128.00
2023-03-31T05:42:58.415Z,144.00
2023-03-31T05:43:59.251Z,128.00
2023-03-31T05:44:58.413Z,112.00
2023-03-31T05:45:58.409Z,108.00
2023-03-31T05:46:58.392Z,124.00
2023-03-31T05:47:59.406Z,124.00
2023-03-31T05:48:58.384Z,104.00
2023-03-31T05:49:58.332Z,92.00
2023-03-31T05:50:58.339Z,112.00
2023-03-31T05:51:58.703Z,124.00
2023-03-31T05:52:58.317Z,188.00
2023-03-31T05:53:58.317Z,188.00
2023-03-31T05:54:58.279Z,128.00
2023-03-31T05:55:58.308Z,148.00
2023-03-31T05:56:58.325Z,184.00
2023-03-31T05:57:58.352Z,256.00
2023-03-31T05:58:58.265Z,340.00
2023-03-31T05:59:58.246Z,324.00
2023-03-31T06:00:58.269Z,176.00
2023-03-31T06:01:58.665Z,136.00
2023-03-31T06:02:58.287Z,180.00
2023-03-31T06:03:59.717Z,204.00
2023-03-31T06:04:58.202Z,252.00
2023-03-31T06:05:58.176Z,204.00
2023-03-31T06:06:58.204Z,264.00
2023-03-31T06:07:58.167Z,276.00
2023-03-31T06:08:58.400Z,184.00
2023-03-31T06:09:58.185Z,200.00
2023-03-31T06:10:58.108Z,184.00
2023-03-31T06:11:58.121Z,228.00
2023-03-31T06:12:58.083Z,288.00
2023-03-31T06:13:58.093Z,320.00
2023-03-31T06:14:59.549Z,288.00
2023-03-31T06:15:58.102Z,276.00
2023-03-31T06:16:58.206Z,260.00
2023-03-31T06:17:58.363Z,348.00
2023-03-31T06:18:58.042Z,392.00
2023-03-31T06:19:59.730Z,292.00
2023-03-31T06:20:58.019Z,248.00
2023-03-31T06:21:57.991Z,192.00
2023-03-31T06:22:57.980Z,148.00
2023-03-31T06:23:57.954Z,220.00
2023-03-31T06:24:57.987Z,256.00
2023-03-31T06:25:57.942Z,200.00
2023-03-31T06:26:57.925Z,184.00
2023-03-31T06:27:57.913Z,196.00
2023-03-31T06:28:57.914Z,168.00
2023-03-31T06:29:57.914Z,228.00
2023-03-31T06:30:57.890Z,188.00
2023-03-31T06:31:57.869Z,176.00
2023-03-31T06:32:57.972Z,100.00
2023-03-31T06:33:57.857Z,104.00
2023-03-31T06:34:57.840Z,100.00
2023-03-31T06:35:57.925Z,108.00
2023-03-31T06:36:57.841Z,140.00
2023-03-31T06:37:57.831Z,92.00
2023-03-31T06:38:57.800Z,108.00
2023-03-31T06:39:57.788Z,152.00
2023-03-31T06:40:57.826Z,240.00
2023-03-31T06:41:57.827Z,232.00
2023-03-31T06:42:57.750Z,280.00
2023-03-31T06:43:57.749Z,300.00
2023-03-31T06:44:57.727Z,332.00
2023-03-31T06:45:57.746Z,396.00
2023-03-31T06:46:57.724Z,544.00
2023-03-31T06:47:57.775Z,612.00
2023-03-31T06:48:57.715Z,724.00
2023-03-31T06:49:57.681Z,772.00
2023-03-31T06:50:59.162Z,740.00
2023-03-31T06:51:57.647Z,640.00
2023-03-31T06:52:57.668Z,496.00
2023-03-31T06:53:57.619Z,432.00
2023-03-31T06:54:57.613Z,424.00
2023-03-31T06:55:57.594Z,536.00
2023-03-31T06:56:57.629Z,372.00
2023-03-31T06:57:57.570Z,348.00
2023-03-31T06:58:58.207Z,428.00
2023-03-31T06:59:57.621Z,440.00
2023-03-31T07:00:59.064Z,452.00
2023-03-31T07:01:57.591Z,660.00
2023-03-31T07:02:57.648Z,824.00
2023-03-31T07:03:57.551Z,852.00
2023-03-31T07:04:57.519Z,840.00
2023-03-31T07:05:57.510Z,904.00
2023-03-31T07:06:58.936Z,1176.00
2023-03-31T07:07:57.498Z,1120.00
2023-03-31T07:08:57.461Z,1140.00
2023-03-31T07:09:57.449Z,1164.00
2023-03-31T07:10:58.887Z,1136.00
2023-03-31T07:11:57.511Z,1104.00
2023-03-31T07:12:57.484Z,1024.00
2023-03-31T07:13:57.413Z,1100.00
2023-03-31T07:14:58.839Z,1180.00
2023-03-31T07:15:57.425Z,1316.00
2023-03-31T07:16:58.828Z,1296.00
2023-03-31T07:17:57.400Z,1324.00
2023-03-31T07:18:57.637Z,1108.00
2023-03-31T07:19:57.328Z,660.00
2023-03-31T07:20:58.798Z,440.00
2023-03-31T07:21:57.698Z,444.00
2023-03-31T07:22:57.766Z,460.00
2023-03-31T07:23:57.282Z,520.00
2023-03-31T07:24:57.259Z,680.00
2023-03-31T07:25:57.440Z,712.00
2023-03-31T07:26:58.229Z,772.00
2023-03-31T07:27:57.250Z,768.00
2023-03-31T07:28:57.240Z,640.00
2023-03-31T07:29:57.216Z,768.00
2023-03-31T07:30:57.224Z,928.00
2023-03-31T07:31:57.487Z,696.00
2023-03-31T07:32:57.231Z,508.00
2023-03-31T07:33:57.164Z,696.00
2023-03-31T07:34:57.153Z,840.00
2023-03-31T07:36:10.942Z,596.00
2023-03-31T07:36:58.172Z,780.00
2023-03-31T07:37:57.128Z,644.00
2023-03-31T07:38:57.121Z,744.00
2023-03-31T07:39:58.569Z,900.00
2023-03-31T07:41:07.714Z,672.00
2023-03-31T07:41:58.097Z,616.00
2023-03-31T07:42:57.186Z,696.00
2023-03-31T07:43:57.072Z,788.00
2023-03-31T07:44:57.036Z,820.00
2023-03-31T07:45:57.080Z,1096.00
2023-03-31T07:46:57.042Z,1144.00
2023-03-31T07:47:57.116Z,1124.00
2023-03-31T07:48:57.033Z,1600.00
2023-03-31T07:49:56.975Z,1264.00
2023-03-31T07:50:56.984Z,1560.00
2023-03-31T07:51:56.995Z,1404.00
2023-03-31T07:52:56.955Z,1220.00
2023-03-31T07:53:56.975Z,1012.00
2023-03-31T07:54:56.951Z,1076.00
2023-03-31T07:55:56.999Z,836.00
2023-03-31T07:56:56.992Z,620.00
2023-03-31T07:57:56.896Z,508.00
2023-03-31T07:58:57.809Z,420.00
2023-03-31T07:59:56.892Z,432.00
2023-03-31T08:00:56.891Z,464.00
2023-03-31T08:01:56.973Z,508.00
2023-03-31T08:02:58.427Z,416.00
2023-03-31T08:03:56.870Z,384.00
2023-03-31T08:04:56.839Z,364.00
2023-03-31T08:05:56.823Z,408.00
2023-03-31T08:06:56.793Z,404.00
2023-03-31T08:07:56.838Z,768.00
2023-03-31T08:08:56.800Z,772.00
2023-03-31T08:09:56.765Z,500.00
2023-03-31T08:10:56.749Z,524.00
2023-03-31T08:11:56.734Z,360.00
2023-03-31T08:12:56.768Z,376.00
2023-03-31T08:13:57.264Z,452.00
2023-03-31T08:14:56.733Z,444.00
2023-03-31T08:15:57.629Z,464.00
2023-03-31T08:16:56.699Z,472.00
2023-03-31T08:17:56.710Z,448.00
2023-03-31T08:18:56.676Z,496.00
2023-03-31T08:19:56.670Z,584.00
2023-03-31T08:20:56.661Z,544.00
2023-03-31T08:21:56.663Z,616.00
2023-03-31T08:22:56.652Z,772.00
2023-03-31T08:23:56.632Z,1124.00
2023-03-31T08:24:58.061Z,1564.00
2023-03-31T08:25:58.035Z,2248.00
2023-03-31T08:26:57.579Z,3132.00
2023-03-31T08:27:56.554Z,3900.00
2023-03-31T08:28:58.030Z,4372.00
2023-03-31T08:29:56.633Z,4068.00
2023-03-31T08:30:56.528Z,3860.00
2023-03-31T08:31:56.574Z,3684.00
2023-03-31T08:32:56.611Z,4172.00
2023-03-31T08:33:56.498Z,4256.00
2023-03-31T08:34:56.507Z,3872.00
2023-03-31T08:35:56.499Z,3368.00
2023-03-31T08:36:56.457Z,3292.00
2023-03-31T08:37:56.487Z,3052.00
2023-03-31T08:38:56.725Z,3320.00
2023-03-31T08:39:56.421Z,2688.00
2023-03-31T08:40:56.407Z,2564.00
2023-03-31T08:41:57.850Z,3068.00
2023-03-31T08:42:56.551Z,3320.00
2023-03-31T08:43:57.157Z,3344.00
2023-03-31T08:44:56.362Z,2760.00
2023-03-31T08:45:56.375Z,3144.00
2023-03-31T08:46:56.422Z,3260.00
2023-03-31T08:47:56.349Z,3448.00
2023-03-31T08:48:56.328Z,3160.00
2023-03-31T08:49:56.344Z,3000.00
2023-03-31T08:50:56.305Z,3436.00
2023-03-31T08:51:56.274Z,2664.00
2023-03-31T08:52:56.271Z,3200.00
2023-03-31T08:53:56.278Z,2948.00
2023-03-31T08:54:57.836Z,3724.00
2023-03-31T08:55:56.548Z,3548.00
2023-03-31T08:56:56.273Z,2552.00
2023-03-31T08:57:56.233Z,2424.00
2023-03-31T08:58:56.259Z,3056.00
2023-03-31T08:59:56.196Z,3588.00
2023-03-31T09:00:56.202Z,3368.00
2023-03-31T09:01:57.111Z,2644.00
2023-03-31T09:02:56.228Z,2844.00
2023-03-31T09:03:56.300Z,2784.00
2023-03-31T09:04:56.214Z,2636.00
2023-03-31T09:06:00.602Z,2560.00
2023-03-31T09:06:56.182Z,2428.00
2023-03-31T09:07:56.145Z,2324.00
2023-03-31T09:08:56.099Z,2052.00
2023-03-31T09:09:56.132Z,2280.00
2023-03-31T09:10:56.064Z,2332.00
2023-03-31T09:11:56.141Z,2300.00
2023-03-31T09:12:56.070Z,2208.00
2023-03-31T09:13:56.060Z,2080.00
2023-03-31T09:14:57.479Z,2204.00
2023-03-31T09:15:56.028Z,2176.00
2023-03-31T09:16:56.093Z,2148.00
2023-03-31T09:17:57.510Z,2068.00
2023-03-31T09:18:56.022Z,2040.00
2023-03-31T09:19:56.013Z,2084.00
2023-03-31T09:20:57.444Z,1988.00
2023-03-31T09:21:56.330Z,2048.00
2023-03-31T09:22:56.024Z,1996.00
2023-03-31T09:23:56.760Z,2208.00
2023-03-31T09:24:55.935Z,2412.00
2023-03-31T09:25:56.651Z,2436.00
2023-03-31T09:26:57.357Z,2652.00
2023-03-31T09:27:55.899Z,2548.00
2023-03-31T09:28:55.894Z,2788.00
2023-03-31T09:29:55.875Z,2796.00
2023-03-31T09:30:55.995Z,2532.00
2023-03-31T09:31:56.392Z,2348.00
2023-03-31T09:32:55.850Z,2680.00
2023-03-31T09:33:55.841Z,2968.00
2023-03-31T09:34:55.870Z,3344.00
2023-03-31T09:35:55.838Z,3784.00
2023-03-31T09:36:55.802Z,3916.00
2023-03-31T09:37:55.811Z,3524.00
2023-03-31T09:38:55.773Z,2736.00
2023-03-31T09:39:56.711Z,2472.00
2023-03-31T09:40:55.755Z,2636.00
2023-03-31T09:41:55.770Z,2532.00
2023-03-31T09:42:55.708Z,3552.00
2023-03-31T09:43:55.720Z,3684.00
2023-03-31T09:44:55.735Z,3464.00
2023-03-31T09:46:55.751Z,4332.00
2023-03-31T09:47:55.677Z,4452.00
2023-03-31T09:48:55.663Z,4600.00
2023-03-31T09:49:55.647Z,5036.00
2023-03-31T09:50:55.624Z,5316.00
2023-03-31T09:51:56.617Z,5248.00
2023-03-31T09:52:55.621Z,5032.00
2023-03-31T09:53:55.596Z,5132.00
2023-03-31T09:54:55.576Z,4880.00
2023-03-31T09:55:55.596Z,4656.00
2023-03-31T09:56:56.529Z,4592.00
2023-03-31T09:57:55.547Z,4444.00
2023-03-31T09:58:55.534Z,4224.00
2023-03-31T09:59:56.537Z,3340.00
2023-03-31T10:00:55.515Z,2984.00
2023-03-31T10:01:55.507Z,2872.00
2023-03-31T10:02:55.574Z,4592.00
2023-03-31T10:03:55.535Z,3612.00
2023-03-31T10:04:55.469Z,3100.00
2023-03-31T10:05:55.475Z,1852.00
2023-03-31T10:06:55.459Z,1004.00
2023-03-31T10:07:55.438Z,676.00
2023-03-31T10:08:55.465Z,624.00
2023-03-31T10:09:55.510Z,624.00
2023-03-31T10:10:55.401Z,880.00
2023-03-31T10:11:55.397Z,1072.00
2023-03-31T10:12:55.380Z,1124.00
2023-03-31T10:13:55.363Z,1300.00
2023-03-31T10:14:55.376Z,1696.00
2023-03-31T10:15:55.454Z,2256.00
2023-03-31T10:16:55.360Z,2892.00
2023-03-31T10:17:55.831Z,3492.00
2023-03-31T10:18:55.320Z,4092.00
2023-03-31T10:19:55.323Z,4576.00
2023-03-31T10:20:55.297Z,5044.00
2023-03-31T10:21:55.625Z,5420.00
2023-03-31T10:22:56.749Z,5800.00
2023-03-31T10:23:55.357Z,6212.00
2023-03-31T10:24:55.257Z,6452.00
2023-03-31T10:25:55.248Z,6564.00
2023-03-31T10:26:55.265Z,6428.00
2023-03-31T10:27:55.221Z,6224.00
2023-03-31T10:28:55.223Z,6080.00
2023-03-31T10:29:55.197Z,5856.00
2023-03-31T10:30:55.211Z,5704.00
2023-03-31T10:31:55.205Z,5512.00
2023-03-31T10:32:55.224Z,5444.00
2023-03-31T10:33:55.147Z,5412.00
2023-03-31T10:34:55.135Z,5448.00
2023-03-31T10:35:55.162Z,5572.00
2023-03-31T10:36:55.105Z,5752.00
2023-03-31T10:37:55.145Z,5904.00
2023-03-31T10:38:55.100Z,5988.00
2023-03-31T10:39:55.080Z,6120.00
2023-03-31T10:40:55.147Z,6160.00
2023-03-31T10:41:55.048Z,6212.00
2023-03-31T10:42:55.024Z,6208.00
2023-03-31T10:43:55.057Z,6192.00
2023-03-31T10:44:55.022Z,5320.00
2023-03-31T10:45:55.018Z,5320.00
2023-03-31T10:46:55.058Z,5180.00
2023-03-31T10:47:55.469Z,4848.00
2023-03-31T10:48:55.091Z,4616.00
2023-03-31T10:49:54.957Z,4192.00
2023-03-31T10:50:54.934Z,3932.00
2023-03-31T10:51:54.945Z,3604.00
2023-03-31T10:52:54.915Z,2492.00
2023-03-31T10:53:55.653Z,1404.00
2023-03-31T10:54:54.898Z,2016.00
2023-03-31T10:55:54.885Z,2232.00
2023-03-31T10:56:54.906Z,2060.00
2023-03-31T10:57:54.858Z,2092.00
2023-03-31T10:59:04.650Z,2048.00
2023-03-31T10:59:55.877Z,2456.00
2023-03-31T11:00:54.828Z,3352.00
2023-03-31T11:01:54.995Z,4396.00
2023-03-31T11:02:54.886Z,5384.00
2023-03-31T11:03:54.950Z,5860.00
2023-03-31T11:04:54.796Z,5500.00
2023-03-31T11:05:54.808Z,5960.00
2023-03-31T11:06:55.727Z,6164.00
2023-03-31T11:07:54.752Z,6268.00
2023-03-31T11:08:54.740Z,6464.00
2023-03-31T11:09:54.749Z,6332.00
2023-03-31T11:10:54.732Z,6420.00
2023-03-31T11:11:54.715Z,6336.00
2023-03-31T11:12:54.726Z,5976.00
2023-03-31T11:13:54.706Z,5904.00
2023-03-31T11:14:54.668Z,5068.00
2023-03-31T11:15:54.698Z,5036.00
2023-03-31T11:16:54.685Z,4976.00
2023-03-31T11:17:54.685Z,5000.00
2023-03-31T11:18:54.641Z,5256.00
2023-03-31T11:19:54.674Z,5164.00
2023-03-31T11:20:54.621Z,5604.00
2023-03-31T11:21:54.591Z,6020.00
2023-03-31T11:22:54.588Z,6348.00
2023-03-31T11:23:54.583Z,6088.00
2023-03-31T11:24:55.543Z,5808.00
2023-03-31T11:25:55.510Z,5804.00
2023-03-31T11:26:54.543Z,5760.00
2023-03-31T11:27:54.558Z,5420.00
2023-03-31T11:28:54.527Z,5660.00
2023-03-31T11:29:54.505Z,5400.00
2023-03-31T11:30:54.486Z,5612.00
2023-03-31T11:31:54.590Z,5072.00
2023-03-31T11:32:54.533Z,5148.00
2023-03-31T11:33:54.452Z,5232.00
2023-03-31T11:34:54.507Z,4984.00
2023-03-31T11:35:54.599Z,4972.00
2023-03-31T11:36:54.435Z,4748.00
2023-03-31T11:37:54.422Z,4616.00
2023-03-31T11:38:54.412Z,4676.00
2023-03-31T11:39:54.388Z,4424.00
2023-03-31T11:40:54.406Z,4412.00
2023-03-31T11:41:54.382Z,5040.00
2023-03-31T11:42:54.353Z,4460.00
2023-03-31T11:43:54.381Z,4760.00
2023-03-31T11:44:54.326Z,4608.00
2023-03-31T11:45:54.473Z,4556.00
2023-03-31T11:46:54.318Z,4492.00
2023-03-31T11:47:54.375Z,4436.00
2023-03-31T11:48:54.280Z,4564.00
2023-03-31T11:49:54.348Z,5084.00
2023-03-31T11:50:54.259Z,5420.00
2023-03-31T11:51:54.278Z,5820.00
2023-03-31T11:52:54.272Z,7016.00
2023-03-31T11:53:54.240Z,7520.00
2023-03-31T11:54:54.250Z,8156.00
2023-03-31T11:55:55.226Z,8748.00
2023-03-31T11:56:54.231Z,8892.00
2023-03-31T11:57:54.199Z,8620.00
2023-03-31T11:58:54.175Z,8640.00
2023-03-31T11:59:54.200Z,9000.00
2023-03-31T12:00:54.155Z,7336.00
2023-03-31T12:01:54.166Z,6744.00
2023-03-31T12:02:54.181Z,6988.00
2023-03-31T12:03:54.150Z,6444.00
2023-03-31T12:04:54.161Z,5024.00
2023-03-31T12:05:54.283Z,4668.00
2023-03-31T12:06:54.133Z,4500.00
2023-03-31T12:07:54.087Z,3772.00
2023-03-31T12:08:54.073Z,2324.00
2023-03-31T12:09:54.058Z,2768.00
2023-03-31T12:10:54.066Z,1816.00
2023-03-31T12:11:54.039Z,1712.00
2023-03-31T12:12:54.073Z,2588.00
2023-03-31T12:13:54.004Z,1884.00
2023-03-31T12:14:53.989Z,1452.00
2023-03-31T12:15:54.052Z,1708.00
2023-03-31T12:16:54.964Z,1248.00
2023-03-31T12:17:54.048Z,1660.00
2023-03-31T12:22:12.970Z,1556.00
2023-03-31T12:23:15.589Z,1676.00
2023-03-31T12:24:12.949Z,1508.00
2023-03-31T12:25:12.929Z,1412.00
2023-03-31T12:26:12.946Z,2660.00
2023-03-31T12:27:12.903Z,4780.00
2023-03-31T12:28:12.969Z,5280.00
2023-03-31T12:29:12.891Z,5948.00
2023-03-31T12:30:12.940Z,5600.00
2023-03-31T12:31:12.918Z,5164.00
2023-03-31T12:32:13.874Z,5024.00
2023-03-31T12:33:12.879Z,5836.00
2023-03-31T12:34:12.846Z,6720.00
2023-03-31T12:35:12.876Z,7668.00
2023-03-31T12:36:12.839Z,7220.00
2023-03-31T12:37:12.840Z,6852.00
2023-03-31T12:38:12.831Z,7788.00
2023-03-31T12:39:13.727Z,14720.00
2023-03-31T12:40:12.783Z,13244.00
2023-03-31T12:41:12.761Z,10792.00
2023-03-31T12:42:13.049Z,11332.00
2023-03-31T12:43:12.704Z,10416.00